« 蔵出 黄昏 広島空港 2001/5/5 sat | トップページ | [B.I.]弘前観桜会100周年事業 弘前駐屯地 2018/4/21 sat »

2018/04/23

[B.I.事前訓練]弘前観桜会100周年事業 弘前市 2018/4/20 fri

当初遠征計画に入れていなかったのですが、気がついたら3日間、空時間があった。ちょっと下調べをして、天候をチェックしたら穏やかな日が続くと。えーい、ミッションGO!と、遠路車で出かけました。

20180420_hirosaki_00ikarigasaki

さて、ここからは津軽

20180420_hirosaki_01owani

弘南鉄道支援で、ここに置いて電車で弘前へ。鉄道利用だと、入園料が無料になるので、一石三鳥です。

20180420_hirosaki_02hirosaki

中央弘前駅から歩いて、弘前公園前に

20180420_hirosaki_03hirosaki

明治天皇御行幸之所

20180420_hirosaki_04hirosaki

追手門

20180420_hirosaki_05hirosaki

観光開館前に「たか丸」くん んー、微妙なコラボ

20180420_hirosaki_06hirosaki

お岩木山

20180420_hirosaki_07hirosaki

旧第八師団長官舎は、なんと・・ スターバックスに

20180420_hirosaki_08hirosaki

市役所、東奥日報社前のお堀に桜が栄えます

20180420_hirosaki_09hirosaki

では、登城して弘前城本丸へ

20180420_hirosaki_10hirosaki

うましかは、高い所がお好き 天守から桜を愛でます

20180420_hirosaki_11hirosaki

津軽三味線の演奏をのどかに聴きながら・・・

20180420_hirosaki_12hirosaki

天守前に陣取ブルーコントロール

20180420_hirosaki_13hirosaki

気象班の計測タワーも桜の下に

20180420_hirosaki_14hirosaki

ようこそ弘前城へ 

RJSA 200400Z 26008KT 210V320 9999 FEW040 BKN/// 19/07 Q1017

20180420_hirosaki_15bi

時刻は13時20分過ぎ 訓練が開始されました。

20180420_hirosaki_16bi

最初は、ポイント・スター・ローパス

20180420_hirosaki_17bi

会場真上、ドンピシャです

20180420_hirosaki_18bi

北から進入して、レフトターン

20180420_hirosaki_19bi

次は、ピラミッド・ローパス

20180420_hirosaki_20bi

美しく決まっています。

20180420_hirosaki_21bi

まわりのお客さんも、ほとんどがスマホで動画撮影中

20180420_hirosaki_22bi

リーダーズ・ベネフィット・ローパス

20180420_hirosaki_23bi

デルタ隊形で、東から進入して・・

20180420_hirosaki_24bi

スモック

20180420_hirosaki_25bi

20180420_hirosaki_26bi

デルタ360°

20180420_hirosaki_27bi

桜は、まだほころび始めぐらい・・

20180420_hirosaki_28bi

フェニックス・ローパス

20180420_hirosaki_29bi

クリーン形態での飛行です。

20180420_hirosaki_30bi

上昇して、サクラへの隊形変更

20180420_hirosaki_31bi

折り返し時点で、ストップミッション。青森空港からIFRの出発機あり。

20180420_hirosaki_32bi

ミッション再開は、再度フェニックスから・・

20180420_hirosaki_33bi

サクラの開始

20180420_hirosaki_34bi

チョット遠い・・ 

20180420_hirosaki_35bi

グルグル廻りから、#5,#6が集合して・・

20180420_hirosaki_36bi

オリジナル・レベル・キューピッド

20180420_hirosaki_37bi

上空、トレイルで進入して・・

20180420_hirosaki_38bi

20180420_hirosaki_39bi

20180420_hirosaki_40bi

ダイヤモンドに変わって

20180420_hirosaki_41bi

ダブル・クローバーリーフ・ターン

20180420_hirosaki_42bi

再度旋回して・・

20180420_hirosaki_43bi

アロー・ヘッド

20180420_hirosaki_44bi

20180420_hirosaki_45bi

720°ターン

20180420_hirosaki_46bi

この辺りで、ビンゴ

20180420_hirosaki_47bi

編隊集合して、三沢に帰投です。

20180420_hirosaki_48bi

最後にスパロー攻撃か・・・

RJSA 200500Z 27011KT 9999 FEW040 BKN/// 18/06 Q1017

20180420_hirosaki_49hirosaki

あしたもよいお天気で・・

20180420_hirosaki_50hirosaki

お堀の桜を眺めながら弘前城を後に・・

|

« 蔵出 黄昏 広島空港 2001/5/5 sat | トップページ | [B.I.]弘前観桜会100周年事業 弘前駐屯地 2018/4/21 sat »

BI」カテゴリの記事

コメント

コメントを書く



(ウェブ上には掲載しません)


コメントは記事投稿者が公開するまで表示されません。



トラックバック


この記事へのトラックバック一覧です: [B.I.事前訓練]弘前観桜会100周年事業 弘前市 2018/4/20 fri:

« 蔵出 黄昏 広島空港 2001/5/5 sat | トップページ | [B.I.]弘前観桜会100周年事業 弘前駐屯地 2018/4/21 sat »